Time;durP1;ratioP1;P1;durP2;ratioP2;P2;SDS_P1;SDS_P2;PMS_P1;PMS_P2;Temp;Humidity;BMP_temperature;BMP_pressure;BME280_temperature;BME280_humidity;BME280_pressure;Samples;Min_cycle;Max_cycle;Signal;HPM_P1;HPM_P2
2022/03/15 00:08:06;;;;;;;18.00;9.57;;;0.50;99.90;;;;;;20890315;28;20037;-57
2022/03/15 00:18:09;;;;;;;18.30;8.77;;;0.20;99.90;;;;;;20968096;28;20106;-55
2022/03/15 00:28:12;;;;;;;18.80;10.73;;;-0.10;99.90;;;;;;20970762;28;20040;-53
2022/03/15 00:38:14;;;;;;;20.13;11.45;;;-0.10;99.90;;;;;;20970188;28;20388;-57
2022/03/15 00:48:19;;;;;;;25.38;13.23;;;0.10;99.90;;;;;;20969579;28;20177;-53
2022/03/15 00:58:22;;;;;;;24.50;12.35;;;0.30;99.90;;;;;;20969140;28;20395;-54
2022/03/15 01:08:24;;;;;;;25.02;12.93;;;0.40;99.90;;;;;;20967684;28;20455;-55
2022/03/15 01:18:27;;;;;;;20.58;10.35;;;0.30;99.90;;;;;;20966571;28;20110;-53
2022/03/15 01:28:29;;;;;;;15.15;8.10;;;0.10;99.90;;;;;;20965829;28;20110;-53
2022/03/15 01:38:34;;;;;;;17.75;9.48;;;0.00;99.90;;;;;;20965258;28;20036;-55
2022/03/15 01:48:37;;;;;;;24.35;12.38;;;-0.10;99.90;;;;;;20966739;28;20063;-57
2022/03/15 01:58:40;;;;;;;24.95;13.30;;;-0.10;99.90;;;;;;20964159;28;20036;-53
2022/03/15 02:08:43;;;;;;;20.75;11.02;;;-0.30;99.90;;;;;;20963853;28;20056;-55
2022/03/15 02:18:46;;;;;;;20.98;11.27;;;-0.40;99.90;;;;;;20919086;28;20049;-55
2022/03/15 02:28:48;;;;;;;25.73;13.95;;;-0.20;99.90;;;;;;20881214;28;20048;-55
2022/03/15 02:38:51;;;;;;;13.70;7.72;;;0.20;99.90;;;;;;20884661;28;20037;-53
2022/03/15 02:48:54;;;;;;;14.40;7.72;;;0.40;99.90;;;;;;20912889;28;20044;-52
2022/03/15 02:58:56;;;;;;;17.90;9.65;;;0.60;99.90;;;;;;20878820;28;20045;-57
2022/03/15 03:08:59;;;;;;;13.13;7.90;;;0.70;99.90;;;;;;20878030;28;20481;-55
2022/03/15 03:19:04;;;;;;;14.25;7.88;;;1.00;99.90;;;;;;20940837;28;20115;-56
2022/03/15 03:29:11;;;;;;;19.48;10.13;;;1.20;99.90;;;;;;20975819;28;20102;-53
2022/03/15 03:39:14;;;;;;;12.25;6.70;;;1.30;99.90;;;;;;20974951;28;20040;-54
2022/03/15 03:49:17;;;;;;;12.18;4.70;;;1.40;99.90;;;;;;20974234;28;20117;-56
2022/03/15 03:59:19;;;;;;;11.30;5.03;;;1.40;99.90;;;;;;20973354;28;20044;-52
2022/03/15 04:09:24;;;;;;;10.82;6.32;;;1.30;99.90;;;;;;20972610;28;20036;-55
2022/03/15 04:19:26;;;;;;;13.63;7.03;;;1.30;99.90;;;;;;20971517;28;20499;-55
2022/03/15 04:29:29;;;;;;;12.00;6.55;;;1.20;99.90;;;;;;20954795;28;20365;-53
2022/03/15 04:39:32;;;;;;;10.70;5.30;;;1.20;99.90;;;;;;20970568;28;20044;-55
2022/03/15 04:49:36;;;;;;;16.38;8.63;;;1.40;99.90;;;;;;20969241;28;20078;-52
2022/03/15 04:59:41;;;;;;;15.98;7.97;;;1.40;99.90;;;;;;20967756;28;20392;-54
2022/03/15 05:20:05;;;;;;;12.07;6.40;;;1.60;99.90;;;;;;20967111;28;20045;-52
2022/03/15 05:30:09;;;;;;;21.98;11.48;;;1.70;99.90;;;;;;20966430;28;20032;-55
2022/03/15 05:40:12;;;;;;;23.05;11.88;;;2.00;99.90;;;;;;20966889;28;20055;-54
2022/03/15 05:50:15;;;;;;;22.02;12.00;;;2.50;99.90;;;;;;20965993;28;20075;-53
2022/03/15 06:00:18;;;;;;;21.92;11.88;;;2.30;99.90;;;;;;20964986;28;20102;-57
2022/03/15 06:10:23;;;;;;;20.17;12.27;;;2.20;99.90;;;;;;20949628;28;20037;-53
2022/03/15 06:20:26;;;;;;;20.70;11.23;;;2.20;99.90;;;;;;20954913;28;20110;-56
2022/03/15 06:30:33;;;;;;;20.75;12.15;;;2.50;99.90;;;;;;20963079;28;20470;-53
2022/03/15 06:40:36;;;;;;;19.75;11.73;;;2.80;99.90;;;;;;20962723;28;20067;-55
2022/03/15 06:50:40;;;;;;;29.00;14.70;;;3.20;99.90;;;;;;20963781;28;20036;-53
2022/03/15 07:00:44;;;;;;;26.80;15.27;;;3.60;99.90;;;;;;20961777;28;20033;-56
2022/03/15 07:10:46;;;;;;;27.25;16.52;;;3.90;99.90;;;;;;20961626;28;20480;-56
2022/03/15 07:20:49;;;;;;;27.45;15.65;;;4.10;99.90;;;;;;20900327;28;20107;-55
2022/03/15 07:30:51;;;;;;;27.90;15.98;;;4.40;99.90;;;;;;20891614;28;20103;-53
2022/03/15 07:40:57;;;;;;;30.48;17.23;;;4.60;99.90;;;;;;20892635;28;20155;-57
2022/03/15 07:51:00;;;;;;;31.55;17.92;;;4.50;99.90;;;;;;20892802;28;20037;-54
2022/03/15 08:01:04;;;;;;;28.70;18.45;;;4.80;99.90;;;;;;20891336;28;20033;-57
2022/03/15 08:11:07;;;;;;;32.70;19.20;;;5.20;99.90;;;;;;20890625;28;20064;-58
2022/03/15 08:21:10;;;;;;;31.02;19.70;;;5.70;99.90;;;;;;20953095;28;20053;-54
2022/03/15 08:31:17;;;;;;;32.22;20.45;;;6.40;99.90;;;;;;20971569;28;20072;-55
2022/03/15 08:41:19;;;;;;;31.35;19.80;;;6.60;99.90;;;;;;20970543;28;20083;-55
2022/03/15 08:51:21;;;;;;;33.67;20.95;;;6.40;99.90;;;;;;20969341;28;20143;-58
2022/03/15 09:01:25;;;;;;;33.78;19.95;;;6.20;99.90;;;;;;20969111;28;20090;-59
2022/03/15 09:11:29;;;;;;;31.48;20.70;;;6.20;99.90;;;;;;20967726;28;20102;-57
2022/03/15 09:21:32;;;;;;;33.13;19.85;;;6.20;99.90;;;;;;20967117;28;20416;-56
2022/03/15 09:31:35;;;;;;;34.40;20.80;;;6.40;99.90;;;;;;20968111;28;20036;-53
2022/03/15 09:41:39;;;;;;;34.67;20.42;;;6.30;99.90;;;;;;20967080;28;20116;-55
2022/03/15 09:51:42;;;;;;;29.33;19.35;;;6.40;99.90;;;;;;20965029;28;20459;-53
2022/03/15 10:01:51;;;;;;;32.47;19.50;;;6.60;99.90;;;;;;20964312;28;20032;-56
2022/03/15 10:11:54;;;;;;;34.20;20.63;;;6.60;99.90;;;;;;20964059;28;20082;-53
2022/03/15 10:21:57;;;;;;;32.97;20.70;;;6.90;99.90;;;;;;20963443;28;20091;-53
2022/03/15 10:32:04;;;;;;;34.15;19.98;;;6.90;99.90;;;;;;20963303;28;20048;-58
2022/03/15 10:42:08;;;;;;;32.22;20.25;;;7.00;99.90;;;;;;20962810;28;20512;-54
2022/03/15 10:52:10;;;;;;;30.90;19.42;;;7.40;99.90;;;;;;20962422;28;20443;-58
2022/03/15 11:02:13;;;;;;;27.83;17.23;;;8.20;99.90;;;;;;20970736;28;20396;-56
2022/03/15 11:12:17;;;;;;;28.88;16.45;;;8.50;99.90;;;;;;20977266;28;20036;-55
2022/03/15 11:22:30;;;;;;;37.97;17.88;;;8.50;99.90;;;;;;20910033;28;20045;-58
2022/03/15 11:32:34;;;;;;;29.92;17.10;;;7.70;99.90;;;;;;20909985;28;20396;-53
2022/03/15 11:42:44;;;;;;;28.33;18.20;;;6.80;99.90;;;;;;20909076;28;20033;-55
2022/03/15 11:53:01;;;;;;;32.38;18.42;;;6.30;99.90;;;;;;20908128;28;20029;-57
2022/03/15 12:03:06;;;;;;;27.65;18.25;;;6.40;99.90;;;;;;20908473;28;20045;-56
2022/03/15 12:13:13;;;;;;;29.85;18.05;;;6.60;99.90;;;;;;20944103;28;20110;-57
2022/03/15 12:23:29;;;;;;;31.50;18.95;;;6.80;99.90;;;;;;20971801;28;20048;-57
2022/03/15 12:33:31;;;;;;;34.75;18.88;;;6.90;99.90;;;;;;20971872;28;20082;-57
2022/03/15 12:43:36;;;;;;;34.00;18.55;;;7.20;99.90;;;;;;20970662;28;20044;-56
2022/03/15 12:53:48;;;;;;;28.50;17.75;;;7.60;99.90;;;;;;20969653;28;20086;-56
2022/03/15 13:03:52;;;;;;;30.55;19.27;;;7.40;99.90;;;;;;20968830;28;20500;-58
2022/03/15 13:13:58;;;;;;;29.05;18.73;;;7.00;99.90;;;;;;20927643;28;20048;-58
2022/03/15 13:24:08;;;;;;;33.47;19.48;;;7.00;99.90;;;;;;20966688;28;20040;-54
2022/03/15 13:34:13;;;;;;;34.63;20.33;;;6.60;99.90;;;;;;20966200;28;20033;-54
2022/03/15 13:44:19;;;;;;;32.28;20.42;;;6.40;99.90;;;;;;20966666;28;20106;-58
2022/03/15 13:54:22;;;;;;;32.28;19.80;;;6.40;99.90;;;;;;20965316;28;20048;-56
2022/03/15 14:04:29;;;;;;;34.00;19.25;;;6.30;99.90;;;;;;20964884;28;20036;-52
2022/03/15 14:14:45;;;;;;;30.25;17.08;;;6.90;99.90;;;;;;20955569;28;20045;-58
2022/03/15 14:24:55;;;;;;;31.15;19.85;;;7.50;99.90;;;;;;20880869;28;20357;-57
2022/03/15 14:35:05;;;;;;;34.05;20.33;;;7.50;99.90;;;;;;20887642;28;20044;-57
2022/03/15 14:45:12;;;;;;;44.10;24.55;;;7.20;99.90;;;;;;20896818;28;20032;-55
2022/03/15 14:55:17;;;;;;;43.85;25.70;;;6.60;99.90;;;;;;20896411;28;20086;-59
2022/03/15 15:05:22;;;;;;;43.88;26.13;;;6.20;99.90;;;;;;20895120;28;20037;-57
2022/03/15 15:15:25;;;;;;;45.95;25.52;;;6.00;99.90;;;;;;20911845;28;20056;-53
2022/03/15 15:25:31;;;;;;;39.72;24.00;;;5.90;99.90;;;;;;21060447;28;20048;-56
2022/03/15 15:35:36;;;;;;;40.22;23.92;;;5.80;99.90;;;;;;21075728;28;20475;-54
2022/03/15 15:45:43;;;;;;;41.90;24.27;;;5.50;99.90;;;;;;21057268;28;20487;-52
2022/03/15 15:55:50;;;;;;;42.05;24.90;;;5.30;99.90;;;;;;21057302;28;20086;-56
2022/03/15 16:05:52;;;;;;;45.63;25.42;;;5.20;99.90;;;;;;21055521;28;20040;-56
2022/03/15 16:15:55;;;;;;;47.80;26.65;;;4.90;99.90;;;;;;20993641;28;20044;-57
2022/03/15 16:25:58;;;;;;;45.13;26.75;;;4.70;99.90;;;;;;20970962;28;20032;-56
2022/03/15 16:36:03;;;;;;;45.72;26.70;;;4.40;99.90;;;;;;20969859;28;20086;-53
2022/03/15 16:46:08;;;;;;;56.80;30.17;;;4.10;99.90;;;;;;20969284;28;20059;-55
2022/03/15 16:56:13;;;;;;;55.00;30.52;;;3.70;99.90;;;;;;20809486;28;20104;-53
2022/03/15 17:06:16;;;;;;;60.58;32.53;;;3.30;99.90;;;;;;20810233;28;20100;-53
2022/03/15 17:16:21;;;;;;;56.10;31.60;;;3.20;99.90;;;;;;20748356;28;20077;-54
2022/03/15 17:26:27;;;;;;;70.15;32.50;;;2.80;99.90;;;;;;20791936;28;20045;-58
2022/03/15 17:36:30;;;;;;;67.05;35.10;;;2.50;99.90;;;;;;20882544;28;20110;-54
2022/03/15 17:46:34;;;;;;;70.07;33.85;;;2.10;99.90;;;;;;20982374;28;20040;-57
2022/03/15 17:56:41;;;;;;;71.45;36.70;;;1.70;99.90;;;;;;20963849;28;20098;-56
2022/03/15 18:06:43;;;;;;;80.10;38.88;;;1.30;99.90;;;;;;20963115;28;20033;-54
2022/03/15 18:16:46;;;;;;;68.80;31.85;;;0.90;99.90;;;;;;20963689;28;20492;-52
2022/03/15 18:26:49;;;;;;;101.90;45.55;;;0.70;99.90;;;;;;20963768;28;20110;-53
2022/03/15 18:36:52;;;;;;;120.38;55.83;;;0.70;99.90;;;;;;20963045;28;20041;-56
2022/03/15 18:46:56;;;;;;;105.13;51.22;;;0.70;99.90;;;;;;20961965;28;20091;-53
2022/03/15 18:56:59;;;;;;;111.88;57.70;;;0.70;99.90;;;;;;20961664;28;20032;-54
2022/03/15 19:07:04;;;;;;;56.40;27.98;;;0.80;99.90;;;;;;20961358;28;20040;-53
2022/03/15 19:17:07;;;;;;;79.65;41.42;;;0.80;99.90;;;;;;20960528;28;20052;-52
2022/03/15 19:27:11;;;;;;;8.60;4.40;;;1.20;99.90;;;;;;20975009;28;20553;-54
2022/03/15 19:37:16;;;;;;;68.60;37.25;;;2.10;99.90;;;;;;20958606;28;20040;-55
2022/03/15 19:47:19;;;;;;;79.65;39.45;;;2.50;99.90;;;;;;20974093;28;20045;-54
2022/03/15 19:57:25;;;;;;;8.52;4.32;;;2.40;99.90;;;;;;20957121;28;20025;-53
2022/03/15 20:07:36;;;;;;;19.50;12.38;;;2.80;99.90;;;;;;20972625;28;20439;-54
2022/03/15 20:17:45;;;;;;;3.08;1.90;;;4.20;99.90;;;;;;20971661;28;20052;-53
2022/03/15 20:27:52;;;;;;;4.13;2.20;;;4.60;99.90;;;;;;20971439;28;20044;-52
2022/03/15 20:37:56;;;;;;;4.43;1.98;;;4.80;99.90;;;;;;21007896;22;20098;-55
2022/03/15 20:47:58;;;;;;;3.53;1.98;;;5.30;99.90;;;;;;20968255;28;20036;-57
2022/03/15 20:58:01;;;;;;;4.18;2.13;;;5.10;99.90;;;;;;20983741;28;20082;-57
2022/03/15 21:08:08;;;;;;;3.80;2.08;;;5.20;99.90;;;;;;20983142;28;20040;-57
2022/03/15 21:18:10;;;;;;;3.78;2.20;;;5.70;99.90;;;;;;20844664;28;20086;-57
2022/03/15 21:28:16;;;;;;;3.83;1.40;;;5.90;99.90;;;;;;20827811;28;20033;-57
2022/03/15 21:38:25;;;;;;;3.30;1.70;;;5.80;99.90;;;;;;20844139;28;20061;-66
2022/03/15 21:48:28;;;;;;;3.03;1.58;;;5.70;99.90;;;;;;20880630;28;20390;-56
2022/03/15 21:58:33;;;;;;;2.95;1.95;;;5.70;99.90;;;;;;20880427;28;20037;-57
2022/03/15 22:08:37;;;;;;;3.90;1.30;;;5.80;99.90;;;;;;20846333;28;20440;-56
2022/03/15 22:18:40;;;;;;;3.50;2.10;;;5.80;99.90;;;;;;20894734;28;20036;-57
2022/03/15 22:28:43;;;;;;;2.58;1.38;;;5.80;99.90;;;;;;20878756;28;20036;-57
2022/03/15 23:30:37;;;;;;;4.97;1.63;;;6.10;99.90;;;;;;20974588;28;20086;-56
2022/03/15 23:40:40;;;;;;;2.17;1.10;;;6.10;99.90;;;;;;20973425;28;20044;-55
2022/03/15 23:50:43;;;;;;;2.65;1.40;;;6.10;99.90;;;;;;20972710;28;20036;-54
